sensor_id;sensor_type;location;lat;lon;timestamp;P1;P2;P0
77777;PMS5003;66966;-34.746;138.604;2023-08-01T00:02:00;3;3;
77777;PMS5003;66966;-34.746;138.604;2023-08-01T00:04:25;2;2;
77777;PMS5003;66966;-34.746;138.604;2023-08-01T00:06:51;3;2;
77777;PMS5003;66966;-34.746;138.604;2023-08-01T00:09:17;4;3;
77777;PMS5003;66966;-34.746;138.604;2023-08-01T00:11:42;3;3;
77777;PMS5003;66966;-34.746;138.604;2023-08-01T00:14:08;3;2;
77777;PMS5003;66966;-34.746;138.604;2023-08-01T00:16:34;3;3;
77777;PMS5003;66966;-34.746;138.604;2023-08-01T00:18:59;3;3;
77777;PMS5003;66966;-34.746;138.604;2023-08-01T00:21:25;5;5;
77777;PMS5003;66966;-34.746;138.604;2023-08-01T00:23:51;6;5;
77777;PMS5003;66966;-34.746;138.604;2023-08-01T00:26:17;4;4;
77777;PMS5003;66966;-34.746;138.604;2023-08-01T00:28:42;3;3;
77777;PMS5003;66966;-34.746;138.604;2023-08-01T00:31:08;5;5;
77777;PMS5003;66966;-34.746;138.604;2023-08-01T00:33:34;4;4;
77777;PMS5003;66966;-34.746;138.604;2023-08-01T00:35:59;4;4;
77777;PMS5003;66966;-34.746;138.604;2023-08-01T00:38:25;4;4;
77777;PMS5003;66966;-34.746;138.604;2023-08-01T00:40:51;4;4;
77777;PMS5003;66966;-34.746;138.604;2023-08-01T00:43:16;4;4;
77777;PMS5003;66966;-34.746;138.604;2023-08-01T00:45:41;4;4;
77777;PMS5003;66966;-34.746;138.604;2023-08-01T00:48:07;2;2;
77777;PMS5003;66966;-34.746;138.604;2023-08-01T00:50:33;3;3;
77777;PMS5003;66966;-34.746;138.604;2023-08-01T00:52:58;5;3;
77777;PMS5003;66966;-34.746;138.604;2023-08-01T00:55:24;5;3;
77777;PMS5003;66966;-34.746;138.604;2023-08-01T00:57:50;3;3;
77777;PMS5003;66966;-34.746;138.604;2023-08-01T01:00:15;2;2;
77777;PMS5003;66966;-34.746;138.604;2023-08-01T01:02:42;4;4;
77777;PMS5003;66966;-34.746;138.604;2023-08-01T01:05:07;3;3;
77777;PMS5003;66966;-34.746;138.604;2023-08-01T01:07:32;3;3;
77777;PMS5003;66966;-34.746;138.604;2023-08-01T01:09:58;2;2;
77777;PMS5003;66966;-34.746;138.604;2023-08-01T01:12:23;2;2;
77777;PMS5003;66966;-34.746;138.604;2023-08-01T01:14:49;2;2;
77777;PMS5003;66966;-34.746;138.604;2023-08-01T01:17:15;2;2;
77777;PMS5003;66966;-34.746;138.604;2023-08-01T01:19:40;4;3;
77777;PMS5003;66966;-34.746;138.604;2023-08-01T01:22:06;4;4;
77777;PMS5003;66966;-34.746;138.604;2023-08-01T01:24:32;1;1;
77777;PMS5003;66966;-34.746;138.604;2023-08-01T01:26:57;2;2;
77777;PMS5003;66966;-34.746;138.604;2023-08-01T01:29:23;3;3;
77777;PMS5003;66966;-34.746;138.604;2023-08-01T01:31:48;3;3;
77777;PMS5003;66966;-34.746;138.604;2023-08-01T01:34:14;1;1;
77777;PMS5003;66966;-34.746;138.604;2023-08-01T01:36:40;3;3;
77777;PMS5003;66966;-34.746;138.604;2023-08-01T01:39:05;2;2;
77777;PMS5003;66966;-34.746;138.604;2023-08-01T01:41:31;2;2;
77777;PMS5003;66966;-34.746;138.604;2023-08-01T01:43:56;1;1;
77777;PMS5003;66966;-34.746;138.604;2023-08-01T01:46:26;1;1;
77777;PMS5003;66966;-34.746;138.604;2023-08-01T01:48:47;2;1;
77777;PMS5003;66966;-34.746;138.604;2023-08-01T01:51:14;1;1;
77777;PMS5003;66966;-34.746;138.604;2023-08-01T01:53:39;1;1;
77777;PMS5003;66966;-34.746;138.604;2023-08-01T01:56:04;3;3;
77777;PMS5003;66966;-34.746;138.604;2023-08-01T01:58:30;3;3;
77777;PMS5003;66966;-34.746;138.604;2023-08-01T02:00:55;5;4;
77777;PMS5003;66966;-34.746;138.604;2023-08-01T02:03:21;6;5;
77777;PMS5003;66966;-34.746;138.604;2023-08-01T02:05:47;5;5;
77777;PMS5003;66966;-34.746;138.604;2023-08-01T02:08:12;3;3;
77777;PMS5003;66966;-34.746;138.604;2023-08-01T02:10:38;4;4;
77777;PMS5003;66966;-34.746;138.604;2023-08-01T02:13:03;4;4;
77777;PMS5003;66966;-34.746;138.604;2023-08-01T02:15:29;7;7;
77777;PMS5003;66966;-34.746;138.604;2023-08-01T02:17:55;8;7;
77777;PMS5003;66966;-34.746;138.604;2023-08-01T02:20:20;13;13;
77777;PMS5003;66966;-34.746;138.604;2023-08-01T02:22:46;7;5;
77777;PMS5003;66966;-34.746;138.604;2023-08-01T02:25:12;6;5;
77777;PMS5003;66966;-34.746;138.604;2023-08-01T02:27:37;10;10;
77777;PMS5003;66966;-34.746;138.604;2023-08-01T02:30:03;9;9;
77777;PMS5003;66966;-34.746;138.604;2023-08-01T02:32:28;10;8;
77777;PMS5003;66966;-34.746;138.604;2023-08-01T02:34:54;6;6;
77777;PMS5003;66966;-34.746;138.604;2023-08-01T02:37:19;7;7;
77777;PMS5003;66966;-34.746;138.604;2023-08-01T02:39:45;6;6;
77777;PMS5003;66966;-34.746;138.604;2023-08-01T02:42:10;9;8;
77777;PMS5003;66966;-34.746;138.604;2023-08-01T02:44:36;8;8;
77777;PMS5003;66966;-34.746;138.604;2023-08-01T02:47:01;7;6;
77777;PMS5003;66966;-34.746;138.604;2023-08-01T02:49:27;6;5;
77777;PMS5003;66966;-34.746;138.604;2023-08-01T02:51:53;4;4;
77777;PMS5003;66966;-34.746;138.604;2023-08-01T02:54:18;5;5;
77777;PMS5003;66966;-34.746;138.604;2023-08-01T02:56:44;6;6;
77777;PMS5003;66966;-34.746;138.604;2023-08-01T02:59:10;4;3;
77777;PMS5003;66966;-34.746;138.604;2023-08-01T03:01:35;2;2;
77777;PMS5003;66966;-34.746;138.604;2023-08-01T03:04:06;4;4;
77777;PMS5003;66966;-34.746;138.604;2023-08-01T03:06:26;4;4;
77777;PMS5003;66966;-34.746;138.604;2023-08-01T03:08:52;4;4;
77777;PMS5003;66966;-34.746;138.604;2023-08-01T03:11:18;2;2;
77777;PMS5003;66966;-34.746;138.604;2023-08-01T03:13:43;5;5;
77777;PMS5003;66966;-34.746;138.604;2023-08-01T03:16:09;5;4;
77777;PMS5003;66966;-34.746;138.604;2023-08-01T03:18:34;6;5;
77777;PMS5003;66966;-34.746;138.604;2023-08-01T03:21:00;3;3;
77777;PMS5003;66966;-34.746;138.604;2023-08-01T03:23:25;4;4;
77777;PMS5003;66966;-34.746;138.604;2023-08-01T03:25:51;4;4;
77777;PMS5003;66966;-34.746;138.604;2023-08-01T03:28:16;5;4;
77777;PMS5003;66966;-34.746;138.604;2023-08-01T03:30:42;4;4;
77777;PMS5003;66966;-34.746;138.604;2023-08-01T03:33:07;6;6;
77777;PMS5003;66966;-34.746;138.604;2023-08-01T03:35:33;4;4;
77777;PMS5003;66966;-34.746;138.604;2023-08-01T03:37:59;3;3;
77777;PMS5003;66966;-34.746;138.604;2023-08-01T03:40:24;3;3;
77777;PMS5003;66966;-34.746;138.604;2023-08-01T03:42:50;3;3;
77777;PMS5003;66966;-34.746;138.604;2023-08-01T03:45:15;3;3;
77777;PMS5003;66966;-34.746;138.604;2023-08-01T03:47:41;4;3;
77777;PMS5003;66966;-34.746;138.604;2023-08-01T03:50:07;2;2;
77777;PMS5003;66966;-34.746;138.604;2023-08-01T03:52:32;2;2;
77777;PMS5003;66966;-34.746;138.604;2023-08-01T03:54:57;3;2;
77777;PMS5003;66966;-34.746;138.604;2023-08-01T03:57:23;2;2;
77777;PMS5003;66966;-34.746;138.604;2023-08-01T03:59:49;2;2;
77777;PMS5003;66966;-34.746;138.604;2023-08-01T04:02:14;3;2;
77777;PMS5003;66966;-34.746;138.604;2023-08-01T04:04:40;1;1;
77777;PMS5003;66966;-34.746;138.604;2023-08-01T04:07:05;0;0;
77777;PMS5003;66966;-34.746;138.604;2023-08-01T04:09:31;3;2;
77777;PMS5003;66966;-34.746;138.604;2023-08-01T04:11:56;2;2;
77777;PMS5003;66966;-34.746;138.604;2023-08-01T04:14:22;1;1;
77777;PMS5003;66966;-34.746;138.604;2023-08-01T04:16:48;2;2;
77777;PMS5003;66966;-34.746;138.604;2023-08-01T04:19:13;1;1;
77777;PMS5003;66966;-34.746;138.604;2023-08-01T04:21:39;2;2;
77777;PMS5003;66966;-34.746;138.604;2023-08-01T04:24:04;0;0;
77777;PMS5003;66966;-34.746;138.604;2023-08-01T04:26:30;2;2;
77777;PMS5003;66966;-34.746;138.604;2023-08-01T04:28:55;1;1;
77777;PMS5003;66966;-34.746;138.604;2023-08-01T04:31:22;1;1;
77777;PMS5003;66966;-34.746;138.604;2023-08-01T04:33:47;3;2;
77777;PMS5003;66966;-34.746;138.604;2023-08-01T04:36:12;2;2;
77777;PMS5003;66966;-34.746;138.604;2023-08-01T04:38:38;1;1;
77777;PMS5003;66966;-34.746;138.604;2023-08-01T04:41:03;2;2;
77777;PMS5003;66966;-34.746;138.604;2023-08-01T04:43:29;2;1;
77777;PMS5003;66966;-34.746;138.604;2023-08-01T04:45:54;1;1;
77777;PMS5003;66966;-34.746;138.604;2023-08-01T04:48:20;4;2;
77777;PMS5003;66966;-34.746;138.604;2023-08-01T04:50:45;1;1;
77777;PMS5003;66966;-34.746;138.604;2023-08-01T04:53:11;2;1;
77777;PMS5003;66966;-34.746;138.604;2023-08-01T04:55:36;1;1;
77777;PMS5003;66966;-34.746;138.604;2023-08-01T04:58:02;1;1;
77777;PMS5003;66966;-34.746;138.604;2023-08-01T05:00:27;1;1;
77777;PMS5003;66966;-34.746;138.604;2023-08-01T05:02:53;1;1;
77777;PMS5003;66966;-34.746;138.604;2023-08-01T05:05:19;2;2;
77777;PMS5003;66966;-34.746;138.604;2023-08-01T05:07:44;1;1;
77777;PMS5003;66966;-34.746;138.604;2023-08-01T05:10:10;0;0;
77777;PMS5003;66966;-34.746;138.604;2023-08-01T05:12:36;3;3;
77777;PMS5003;66966;-34.746;138.604;2023-08-01T05:15:00;3;3;
77777;PMS5003;66966;-34.746;138.604;2023-08-01T05:17:26;1;1;
77777;PMS5003;66966;-34.746;138.604;2023-08-01T05:19:52;1;1;
77777;PMS5003;66966;-34.746;138.604;2023-08-01T05:22:18;2;2;
77777;PMS5003;66966;-34.746;138.604;2023-08-01T05:24:43;3;2;
77777;PMS5003;66966;-34.746;138.604;2023-08-01T05:27:08;2;2;
77777;PMS5003;66966;-34.746;138.604;2023-08-01T05:29:34;1;1;
77777;PMS5003;66966;-34.746;138.604;2023-08-01T05:32:00;2;2;
77777;PMS5003;66966;-34.746;138.604;2023-08-01T05:34:25;1;1;
77777;PMS5003;66966;-34.746;138.604;2023-08-01T05:36:50;2;2;
77777;PMS5003;66966;-34.746;138.604;2023-08-01T05:39:17;3;2;
77777;PMS5003;66966;-34.746;138.604;2023-08-01T05:41:41;2;2;
77777;PMS5003;66966;-34.746;138.604;2023-08-01T05:44:07;2;2;
77777;PMS5003;66966;-34.746;138.604;2023-08-01T05:46:32;1;1;
77777;PMS5003;66966;-34.746;138.604;2023-08-01T05:48:58;1;1;
77777;PMS5003;66966;-34.746;138.604;2023-08-01T05:51:23;0;0;
77777;PMS5003;66966;-34.746;138.604;2023-08-01T05:53:49;3;2;
77777;PMS5003;66966;-34.746;138.604;2023-08-01T05:56:14;1;1;
77777;PMS5003;66966;-34.746;138.604;2023-08-01T05:58:40;1;1;
77777;PMS5003;66966;-34.746;138.604;2023-08-01T06:01:05;2;2;
77777;PMS5003;66966;-34.746;138.604;2023-08-01T06:03:31;2;2;
77777;PMS5003;66966;-34.746;138.604;2023-08-01T06:05:56;1;1;
77777;PMS5003;66966;-34.746;138.604;2023-08-01T06:08:22;1;1;
77777;PMS5003;66966;-34.746;138.604;2023-08-01T06:10:48;1;1;
77777;PMS5003;66966;-34.746;138.604;2023-08-01T06:13:13;2;2;
77777;PMS5003;66966;-34.746;138.604;2023-08-01T06:15:38;1;1;
77777;PMS5003;66966;-34.746;138.604;2023-08-01T06:18:04;3;2;
77777;PMS5003;66966;-34.746;138.604;2023-08-01T06:20:29;0;0;
77777;PMS5003;66966;-34.746;138.604;2023-08-01T06:22:55;1;1;
77777;PMS5003;66966;-34.746;138.604;2023-08-01T06:25:20;3;1;
77777;PMS5003;66966;-34.746;138.604;2023-08-01T06:27:46;0;0;
77777;PMS5003;66966;-34.746;138.604;2023-08-01T06:30:12;0;0;
77777;PMS5003;66966;-34.746;138.604;2023-08-01T06:32:37;1;1;
77777;PMS5003;66966;-34.746;138.604;2023-08-01T06:35:04;0;0;
77777;PMS5003;66966;-34.746;138.604;2023-08-01T06:37:28;0;0;
77777;PMS5003;66966;-34.746;138.604;2023-08-01T06:39:54;1;1;
77777;PMS5003;66966;-34.746;138.604;2023-08-01T06:42:19;0;0;
77777;PMS5003;66966;-34.746;138.604;2023-08-01T06:44:45;1;1;
77777;PMS5003;66966;-34.746;138.604;2023-08-01T06:47:10;0;0;
77777;PMS5003;66966;-34.746;138.604;2023-08-01T06:49:35;0;0;
77777;PMS5003;66966;-34.746;138.604;2023-08-01T06:52:01;0;0;
77777;PMS5003;66966;-34.746;138.604;2023-08-01T06:54:26;0;0;
77777;PMS5003;66966;-34.746;138.604;2023-08-01T06:56:52;1;1;
77777;PMS5003;66966;-34.746;138.604;2023-08-01T06:59:18;1;1;
77777;PMS5003;66966;-34.746;138.604;2023-08-01T07:01:43;1;1;
77777;PMS5003;66966;-34.746;138.604;2023-08-01T07:04:08;0;0;
77777;PMS5003;66966;-34.746;138.604;2023-08-01T07:06:34;2;2;
77777;PMS5003;66966;-34.746;138.604;2023-08-01T07:08:59;1;1;
77777;PMS5003;66966;-34.746;138.604;2023-08-01T07:11:25;0;0;
77777;PMS5003;66966;-34.746;138.604;2023-08-01T07:13:51;0;0;
77777;PMS5003;66966;-34.746;138.604;2023-08-01T07:16:16;1;1;
77777;PMS5003;66966;-34.746;138.604;2023-08-01T07:18:41;0;0;
77777;PMS5003;66966;-34.746;138.604;2023-08-01T07:21:07;0;0;
77777;PMS5003;66966;-34.746;138.604;2023-08-01T07:23:33;0;0;
77777;PMS5003;66966;-34.746;138.604;2023-08-01T07:25:58;0;0;
77777;PMS5003;66966;-34.746;138.604;2023-08-01T07:28:24;0;0;
77777;PMS5003;66966;-34.746;138.604;2023-08-01T07:30:57;1;1;
77777;PMS5003;66966;-34.746;138.604;2023-08-01T07:33:15;2;2;
77777;PMS5003;66966;-34.746;138.604;2023-08-01T07:35:40;0;0;
77777;PMS5003;66966;-34.746;138.604;2023-08-01T07:38:06;1;1;
77777;PMS5003;66966;-34.746;138.604;2023-08-01T07:40:37;0;0;
77777;PMS5003;66966;-34.746;138.604;2023-08-01T07:42:57;1;1;
77777;PMS5003;66966;-34.746;138.604;2023-08-01T07:45:23;1;1;
77777;PMS5003;66966;-34.746;138.604;2023-08-01T07:47:48;1;1;
77777;PMS5003;66966;-34.746;138.604;2023-08-01T07:50:14;1;1;
77777;PMS5003;66966;-34.746;138.604;2023-08-01T07:52:39;0;0;
77777;PMS5003;66966;-34.746;138.604;2023-08-01T07:55:06;1;1;
77777;PMS5003;66966;-34.746;138.604;2023-08-01T07:57:30;1;0;
77777;PMS5003;66966;-34.746;138.604;2023-08-01T07:59:56;0;0;
77777;PMS5003;66966;-34.746;138.604;2023-08-01T08:02:22;2;2;
77777;PMS5003;66966;-34.746;138.604;2023-08-01T08:04:47;1;1;
77777;PMS5003;66966;-34.746;138.604;2023-08-01T08:07:13;3;3;
77777;PMS5003;66966;-34.746;138.604;2023-08-01T08:09:38;1;1;
77777;PMS5003;66966;-34.746;138.604;2023-08-01T08:12:04;1;1;
77777;PMS5003;66966;-34.746;138.604;2023-08-01T08:14:30;1;1;
77777;PMS5003;66966;-34.746;138.604;2023-08-01T08:16:55;1;1;
77777;PMS5003;66966;-34.746;138.604;2023-08-01T08:19:21;1;1;
77777;PMS5003;66966;-34.746;138.604;2023-08-01T08:21:47;1;1;
77777;PMS5003;66966;-34.746;138.604;2023-08-01T08:24:12;0;0;
77777;PMS5003;66966;-34.746;138.604;2023-08-01T08:26:39;1;1;
77777;PMS5003;66966;-34.746;138.604;2023-08-01T08:29:03;1;0;
77777;PMS5003;66966;-34.746;138.604;2023-08-01T08:31:29;2;2;
77777;PMS5003;66966;-34.746;138.604;2023-08-01T08:33:56;1;1;
77777;PMS5003;66966;-34.746;138.604;2023-08-01T08:36:20;2;2;
77777;PMS5003;66966;-34.746;138.604;2023-08-01T08:38:46;1;1;
77777;PMS5003;66966;-34.746;138.604;2023-08-01T08:41:13;3;3;
77777;PMS5003;66966;-34.746;138.604;2023-08-01T08:43:37;4;4;
77777;PMS5003;66966;-34.746;138.604;2023-08-01T08:46:03;5;5;
77777;PMS5003;66966;-34.746;138.604;2023-08-01T08:48:28;5;5;
77777;PMS5003;66966;-34.746;138.604;2023-08-01T08:50:54;5;5;
77777;PMS5003;66966;-34.746;138.604;2023-08-01T08:53:20;7;7;
77777;PMS5003;66966;-34.746;138.604;2023-08-01T08:55:45;6;6;
77777;PMS5003;66966;-34.746;138.604;2023-08-01T08:58:11;5;5;
77777;PMS5003;66966;-34.746;138.604;2023-08-01T09:00:36;6;4;
77777;PMS5003;66966;-34.746;138.604;2023-08-01T09:03:02;3;3;
77777;PMS5003;66966;-34.746;138.604;2023-08-01T09:05:29;4;2;
77777;PMS5003;66966;-34.746;138.604;2023-08-01T09:07:54;4;4;
77777;PMS5003;66966;-34.746;138.604;2023-08-01T09:10:19;4;4;
77777;PMS5003;66966;-34.746;138.604;2023-08-01T09:12:45;7;7;
77777;PMS5003;66966;-34.746;138.604;2023-08-01T09:15:10;8;8;
77777;PMS5003;66966;-34.746;138.604;2023-08-01T09:17:36;8;8;
77777;PMS5003;66966;-34.746;138.604;2023-08-01T09:20:05;11;11;
77777;PMS5003;66966;-34.746;138.604;2023-08-01T09:22:27;9;9;
77777;PMS5003;66966;-34.746;138.604;2023-08-01T09:24:53;10;10;
77777;PMS5003;66966;-34.746;138.604;2023-08-01T09:27:20;12;11;
77777;PMS5003;66966;-34.746;138.604;2023-08-01T09:29:46;17;16;
77777;PMS5003;66966;-34.746;138.604;2023-08-01T09:32:13;14;12;
77777;PMS5003;66966;-34.746;138.604;2023-08-01T09:34:36;16;14;
77777;PMS5003;66966;-34.746;138.604;2023-08-01T09:37:01;14;13;
77777;PMS5003;66966;-34.746;138.604;2023-08-01T09:39:27;16;15;
77777;PMS5003;66966;-34.746;138.604;2023-08-01T09:41:55;12;12;
77777;PMS5003;66966;-34.746;138.604;2023-08-01T09:44:17;15;14;
77777;PMS5003;66966;-34.746;138.604;2023-08-01T09:46:42;13;13;
77777;PMS5003;66966;-34.746;138.604;2023-08-01T09:49:09;14;14;
77777;PMS5003;66966;-34.746;138.604;2023-08-01T09:51:33;17;16;
77777;PMS5003;66966;-34.746;138.604;2023-08-01T09:53:59;16;15;
77777;PMS5003;66966;-34.746;138.604;2023-08-01T09:56:25;16;14;
77777;PMS5003;66966;-34.746;138.604;2023-08-01T09:58:51;14;13;
77777;PMS5003;66966;-34.746;138.604;2023-08-01T10:01:17;15;15;
77777;PMS5003;66966;-34.746;138.604;2023-08-01T10:03:44;15;14;
77777;PMS5003;66966;-34.746;138.604;2023-08-01T10:06:08;17;16;
77777;PMS5003;66966;-34.746;138.604;2023-08-01T10:08:33;16;14;
77777;PMS5003;66966;-34.746;138.604;2023-08-01T10:10:59;15;14;
77777;PMS5003;66966;-34.746;138.604;2023-08-01T10:13:24;15;15;
77777;PMS5003;66966;-34.746;138.604;2023-08-01T10:15:50;13;13;
77777;PMS5003;66966;-34.746;138.604;2023-08-01T10:18:24;19;15;
77777;PMS5003;66966;-34.746;138.604;2023-08-01T10:20:45;14;14;
77777;PMS5003;66966;-34.746;138.604;2023-08-01T10:23:10;15;14;
77777;PMS5003;66966;-34.746;138.604;2023-08-01T10:25:35;13;13;
77777;PMS5003;66966;-34.746;138.604;2023-08-01T10:28:01;14;14;
77777;PMS5003;66966;-34.746;138.604;2023-08-01T10:30:26;15;15;
77777;PMS5003;66966;-34.746;138.604;2023-08-01T10:32:53;14;13;
77777;PMS5003;66966;-34.746;138.604;2023-08-01T10:35:17;16;15;
77777;PMS5003;66966;-34.746;138.604;2023-08-01T10:37:43;20;19;
77777;PMS5003;66966;-34.746;138.604;2023-08-01T10:40:09;18;17;
77777;PMS5003;66966;-34.746;138.604;2023-08-01T10:44:59;19;18;
77777;PMS5003;66966;-34.746;138.604;2023-08-01T10:47:26;19;18;
77777;PMS5003;66966;-34.746;138.604;2023-08-01T10:49:51;14;14;
77777;PMS5003;66966;-34.746;138.604;2023-08-01T10:52:17;15;14;
77777;PMS5003;66966;-34.746;138.604;2023-08-01T10:54:42;16;15;
77777;PMS5003;66966;-34.746;138.604;2023-08-01T10:57:07;15;14;
77777;PMS5003;66966;-34.746;138.604;2023-08-01T10:59:33;18;17;
77777;PMS5003;66966;-34.746;138.604;2023-08-01T11:01:59;17;16;
77777;PMS5003;66966;-34.746;138.604;2023-08-01T11:04:24;16;15;
77777;PMS5003;66966;-34.746;138.604;2023-08-01T11:06:50;20;16;
77777;PMS5003;66966;-34.746;138.604;2023-08-01T11:09:19;18;17;
77777;PMS5003;66966;-34.746;138.604;2023-08-01T11:11:40;19;19;
77777;PMS5003;66966;-34.746;138.604;2023-08-01T11:14:06;23;21;
77777;PMS5003;66966;-34.746;138.604;2023-08-01T11:16:31;20;18;
77777;PMS5003;66966;-34.746;138.604;2023-08-01T11:18:57;23;21;
77777;PMS5003;66966;-34.746;138.604;2023-08-01T11:21:26;20;17;
77777;PMS5003;66966;-34.746;138.604;2023-08-01T11:23:48;24;20;
77777;PMS5003;66966;-34.746;138.604;2023-08-01T11:26:14;20;18;
77777;PMS5003;66966;-34.746;138.604;2023-08-01T11:28:39;20;20;
77777;PMS5003;66966;-34.746;138.604;2023-08-01T11:33:30;23;19;
77777;PMS5003;66966;-34.746;138.604;2023-08-01T11:35:56;18;17;
77777;PMS5003;66966;-34.746;138.604;2023-08-01T11:38:22;24;23;
77777;PMS5003;66966;-34.746;138.604;2023-08-01T11:40:47;24;22;
77777;PMS5003;66966;-34.746;138.604;2023-08-01T11:43:13;27;25;
77777;PMS5003;66966;-34.746;138.604;2023-08-01T11:45:47;23;21;
77777;PMS5003;66966;-34.746;138.604;2023-08-01T11:48:03;31;30;
77777;PMS5003;66966;-34.746;138.604;2023-08-01T11:50:29;25;24;
77777;PMS5003;66966;-34.746;138.604;2023-08-01T11:52:54;32;29;
77777;PMS5003;66966;-34.746;138.604;2023-08-01T11:55:21;39;36;
77777;PMS5003;66966;-34.746;138.604;2023-08-01T12:00:11;42;39;
77777;PMS5003;66966;-34.746;138.604;2023-08-01T12:02:37;41;39;
77777;PMS5003;66966;-34.746;138.604;2023-08-01T12:05:02;36;33;
77777;PMS5003;66966;-34.746;138.604;2023-08-01T12:07:27;32;32;
77777;PMS5003;66966;-34.746;138.604;2023-08-01T12:09:56;34;33;
77777;PMS5003;66966;-34.746;138.604;2023-08-01T12:12:18;35;34;
77777;PMS5003;66966;-34.746;138.604;2023-08-01T12:14:44;32;31;
77777;PMS5003;66966;-34.746;138.604;2023-08-01T12:17:09;34;32;
77777;PMS5003;66966;-34.746;138.604;2023-08-01T12:19:35;45;43;
77777;PMS5003;66966;-34.746;138.604;2023-08-01T12:22:00;45;44;
77777;PMS5003;66966;-34.746;138.604;2023-08-01T12:24:26;48;42;
77777;PMS5003;66966;-34.746;138.604;2023-08-01T12:26:52;49;46;
77777;PMS5003;66966;-34.746;138.604;2023-08-01T12:29:17;49;47;
77777;PMS5003;66966;-34.746;138.604;2023-08-01T12:31:42;45;44;
77777;PMS5003;66966;-34.746;138.604;2023-08-01T12:34:07;41;38;
77777;PMS5003;66966;-34.746;138.604;2023-08-01T12:36:33;37;35;
77777;PMS5003;66966;-34.746;138.604;2023-08-01T12:38:59;40;36;
77777;PMS5003;66966;-34.746;138.604;2023-08-01T12:41:24;33;33;
77777;PMS5003;66966;-34.746;138.604;2023-08-01T12:43:50;30;28;
77777;PMS5003;66966;-34.746;138.604;2023-08-01T12:46:15;27;27;
77777;PMS5003;66966;-34.746;138.604;2023-08-01T12:48:40;33;30;
77777;PMS5003;66966;-34.746;138.604;2023-08-01T12:51:06;27;26;
77777;PMS5003;66966;-34.746;138.604;2023-08-01T12:53:31;33;31;
77777;PMS5003;66966;-34.746;138.604;2023-08-01T12:55:57;27;27;
77777;PMS5003;66966;-34.746;138.604;2023-08-01T12:58:23;32;31;
77777;PMS5003;66966;-34.746;138.604;2023-08-01T13:00:49;37;35;
77777;PMS5003;66966;-34.746;138.604;2023-08-01T13:03:14;37;34;
77777;PMS5003;66966;-34.746;138.604;2023-08-01T13:05:39;30;30;
77777;PMS5003;66966;-34.746;138.604;2023-08-01T13:08:04;34;34;
77777;PMS5003;66966;-34.746;138.604;2023-08-01T13:10:30;43;39;
77777;PMS5003;66966;-34.746;138.604;2023-08-01T13:12:55;33;32;
77777;PMS5003;66966;-34.746;138.604;2023-08-01T13:15:20;31;28;
77777;PMS5003;66966;-34.746;138.604;2023-08-01T13:17:46;29;25;
77777;PMS5003;66966;-34.746;138.604;2023-08-01T13:20:11;30;28;
77777;PMS5003;66966;-34.746;138.604;2023-08-01T13:22:37;31;28;
77777;PMS5003;66966;-34.746;138.604;2023-08-01T13:25:02;28;25;
77777;PMS5003;66966;-34.746;138.604;2023-08-01T13:27:28;22;22;
77777;PMS5003;66966;-34.746;138.604;2023-08-01T13:29:53;27;24;
77777;PMS5003;66966;-34.746;138.604;2023-08-01T13:32:19;31;30;
77777;PMS5003;66966;-34.746;138.604;2023-08-01T13:34:45;27;27;
77777;PMS5003;66966;-34.746;138.604;2023-08-01T13:37:10;27;26;
77777;PMS5003;66966;-34.746;138.604;2023-08-01T13:39:35;33;31;
77777;PMS5003;66966;-34.746;138.604;2023-08-01T13:42:00;33;32;
77777;PMS5003;66966;-34.746;138.604;2023-08-01T13:44:26;37;36;
77777;PMS5003;66966;-34.746;138.604;2023-08-01T13:46:51;38;36;
77777;PMS5003;66966;-34.746;138.604;2023-08-01T13:49:17;47;43;
77777;PMS5003;66966;-34.746;138.604;2023-08-01T13:51:43;45;43;
77777;PMS5003;66966;-34.746;138.604;2023-08-01T13:54:08;46;45;
77777;PMS5003;66966;-34.746;138.604;2023-08-01T13:56:34;48;43;
77777;PMS5003;66966;-34.746;138.604;2023-08-01T13:58:59;49;47;
77777;PMS5003;66966;-34.746;138.604;2023-08-01T14:01:24;58;57;
77777;PMS5003;66966;-34.746;138.604;2023-08-01T14:03:50;57;55;
77777;PMS5003;66966;-34.746;138.604;2023-08-01T14:06:15;50;46;
77777;PMS5003;66966;-34.746;138.604;2023-08-01T14:08:41;43;43;
77777;PMS5003;66966;-34.746;138.604;2023-08-01T14:11:07;41;40;
77777;PMS5003;66966;-34.746;138.604;2023-08-01T14:13:31;40;39;
77777;PMS5003;66966;-34.746;138.604;2023-08-01T14:15:57;41;38;
77777;PMS5003;66966;-34.746;138.604;2023-08-01T14:18:22;43;42;
77777;PMS5003;66966;-34.746;138.604;2023-08-01T14:20:47;44;43;
77777;PMS5003;66966;-34.746;138.604;2023-08-01T14:23:13;50;47;
77777;PMS5003;66966;-34.746;138.604;2023-08-01T14:25:39;57;50;
77777;PMS5003;66966;-34.746;138.604;2023-08-01T14:28:04;51;46;
77777;PMS5003;66966;-34.746;138.604;2023-08-01T14:30:30;45;44;
77777;PMS5003;66966;-34.746;138.604;2023-08-01T14:32:59;51;48;
77777;PMS5003;66966;-34.746;138.604;2023-08-01T14:35:20;50;49;
77777;PMS5003;66966;-34.746;138.604;2023-08-01T14:37:46;43;42;
77777;PMS5003;66966;-34.746;138.604;2023-08-01T14:40:12;44;44;
77777;PMS5003;66966;-34.746;138.604;2023-08-01T14:42:36;36;33;
77777;PMS5003;66966;-34.746;138.604;2023-08-01T14:45:01;37;36;
77777;PMS5003;66966;-34.746;138.604;2023-08-01T14:47:27;28;28;
77777;PMS5003;66966;-34.746;138.604;2023-08-01T14:49:52;38;34;
77777;PMS5003;66966;-34.746;138.604;2023-08-01T14:52:18;30;28;
77777;PMS5003;66966;-34.746;138.604;2023-08-01T14:54:44;27;26;
77777;PMS5003;66966;-34.746;138.604;2023-08-01T14:57:09;30;30;
77777;PMS5003;66966;-34.746;138.604;2023-08-01T14:59:34;23;23;
77777;PMS5003;66966;-34.746;138.604;2023-08-01T15:02:00;26;26;
77777;PMS5003;66966;-34.746;138.604;2023-08-01T15:04:27;24;24;
77777;PMS5003;66966;-34.746;138.604;2023-08-01T15:06:52;22;22;
77777;PMS5003;66966;-34.746;138.604;2023-08-01T15:09:17;21;21;
77777;PMS5003;66966;-34.746;138.604;2023-08-01T15:11:42;22;21;
77777;PMS5003;66966;-34.746;138.604;2023-08-01T15:14:07;24;24;
77777;PMS5003;66966;-34.746;138.604;2023-08-01T15:16:34;24;23;
77777;PMS5003;66966;-34.746;138.604;2023-08-01T15:18:59;25;25;
77777;PMS5003;66966;-34.746;138.604;2023-08-01T15:21:25;19;18;
77777;PMS5003;66966;-34.746;138.604;2023-08-01T15:23:50;19;19;
77777;PMS5003;66966;-34.746;138.604;2023-08-01T15:26:16;21;19;
77777;PMS5003;66966;-34.746;138.604;2023-08-01T15:28:41;16;16;
77777;PMS5003;66966;-34.746;138.604;2023-08-01T15:31:07;19;17;
77777;PMS5003;66966;-34.746;138.604;2023-08-01T15:33:33;22;21;
77777;PMS5003;66966;-34.746;138.604;2023-08-01T15:35:58;19;18;
77777;PMS5003;66966;-34.746;138.604;2023-08-01T15:38:23;15;15;
77777;PMS5003;66966;-34.746;138.604;2023-08-01T15:40:49;15;14;
77777;PMS5003;66966;-34.746;138.604;2023-08-01T15:43:14;8;8;
77777;PMS5003;66966;-34.746;138.604;2023-08-01T15:45:38;8;8;